createdAt,value
2017-04-27T00:01:23.346Z,1013.31
2017-04-27T00:02:03.823Z,1013.29
2017-04-27T00:02:44.309Z,1013.29
2017-04-27T00:03:24.798Z,1013.3
2017-04-27T00:04:05.303Z,1013.29
2017-04-27T00:04:45.787Z,1013.28
2017-04-27T00:05:26.250Z,1013.32
2017-04-27T00:06:06.750Z,1013.31
2017-04-27T00:06:47.276Z,1013.32
2017-04-27T00:07:27.765Z,1013.29
2017-04-27T00:08:08.240Z,1013.27
2017-04-27T00:08:48.758Z,1013.28
2017-04-27T00:09:29.241Z,1013.28
2017-04-27T00:10:09.763Z,1013.23
2017-04-27T00:10:50.278Z,1013.29
2017-04-27T00:11:30.741Z,1013.26
2017-04-27T00:12:11.279Z,1013.23
2017-04-27T00:12:51.730Z,1013.28
2017-04-27T00:13:32.227Z,1013.29
2017-04-27T00:14:12.758Z,1013.23
2017-04-27T00:14:53.219Z,1013.26
2017-04-27T00:15:33.695Z,1013.21
2017-04-27T00:16:14.175Z,1013.26
2017-04-27T00:16:54.702Z,1013.25
2017-04-27T00:17:35.139Z,1013.21
2017-04-27T00:18:15.688Z,1013.25
2017-04-27T00:18:56.165Z,1013.25
2017-04-27T00:19:36.639Z,1013.21
2017-04-27T00:20:17.177Z,1013.24
2017-04-27T00:20:57.657Z,1013.23
2017-04-27T00:23:10.867Z,1013.21
2017-04-27T00:23:51.342Z,1013.18
2017-04-27T00:24:31.847Z,1013.19
2017-04-27T00:25:12.319Z,1013.2
2017-04-27T00:25:52.793Z,1013.18
2017-04-27T00:26:33.269Z,1013.17
2017-04-27T00:27:13.759Z,1013.18
2017-04-27T00:27:54.236Z,1013.17
2017-04-27T00:28:34.729Z,1013.16
2017-04-27T00:29:15.241Z,1013.14
2017-04-27T00:29:55.741Z,1013.16
2017-04-27T00:30:36.257Z,1013.16
2017-04-27T00:31:16.746Z,1013.16
2017-04-27T00:31:57.218Z,1013.15
2017-04-27T00:34:10.398Z,1013.11
2017-04-27T00:34:50.865Z,1013.14
2017-04-27T00:35:31.374Z,1013.13
2017-04-27T00:36:11.873Z,1013.15
2017-04-27T00:36:52.334Z,1013.14
2017-04-27T00:37:32.861Z,1013.17
2017-04-27T00:38:13.379Z,1013.15
2017-04-27T00:38:53.879Z,1013.11
2017-04-27T00:39:34.344Z,1013.16
2017-04-27T00:40:14.857Z,1013.17
2017-04-27T00:40:55.370Z,1013.13
2017-04-27T00:41:35.836Z,1013.17
2017-04-27T00:42:16.327Z,1013.16
2017-04-27T00:42:56.845Z,1013.16
2017-04-27T00:43:37.324Z,1013.12
2017-04-27T00:44:17.811Z,1013.14
2017-04-27T00:44:58.288Z,1013.14
2017-04-27T00:45:38.758Z,1013.17
2017-04-27T00:46:19.249Z,1013.13
2017-04-27T00:46:59.739Z,1013.14
2017-04-27T00:47:40.242Z,1013.15
2017-04-27T00:48:20.740Z,1013.14
2017-04-27T00:49:01.221Z,1013.15
2017-04-27T00:49:41.725Z,1013.14
2017-04-27T00:50:22.217Z,1013.13
2017-04-27T00:51:02.695Z,1013.13
2017-04-27T00:51:43.188Z,1013.12
2017-04-27T00:52:23.834Z,1013.1
2017-04-27T00:53:04.324Z,1013.14
2017-04-27T00:53:44.837Z,1013.12
2017-04-27T00:54:25.323Z,1013.16
2017-04-27T00:55:05.800Z,1013.11
2017-04-27T00:55:46.316Z,1013.09
2017-04-27T00:56:26.817Z,1013.17
2017-04-27T00:57:07.349Z,1013.14
2017-04-27T00:57:47.828Z,1013.08
2017-04-27T00:58:28.302Z,1013.16
2017-04-27T00:59:08.786Z,1013.1
2017-04-27T00:59:49.267Z,1013.09
2017-04-27T01:00:29.731Z,1013.08
2017-04-27T01:01:10.255Z,1013.1
2017-04-27T01:01:50.724Z,1013.1
2017-04-27T01:02:31.197Z,1013.07
2017-04-27T01:03:11.709Z,1013.11
2017-04-27T01:03:52.221Z,1013.07
2017-04-27T01:04:32.707Z,1013.12
2017-04-27T01:05:13.216Z,1013.13
2017-04-27T01:05:53.676Z,1013.1
2017-04-27T01:06:34.157Z,1013.11
2017-04-27T01:07:14.649Z,1013.05
2017-04-27T01:07:55.113Z,1013.1
2017-04-27T01:08:35.602Z,1013.1
2017-04-27T01:09:16.080Z,1013.09
2017-04-27T01:09:56.575Z,1013.08
2017-04-27T01:10:37.080Z,1013.08
2017-04-27T01:11:17.580Z,1013.09
2017-04-27T01:11:58.039Z,1013.1
2017-04-27T01:12:38.541Z,1013.09
2017-04-27T01:13:19.000Z,1013.14
2017-04-27T01:13:59.495Z,1013.1
2017-04-27T01:14:39.983Z,1013.09
2017-04-27T01:15:20.439Z,1013.11
2017-04-27T01:16:00.957Z,1013.12
2017-04-27T01:16:41.458Z,1013.13
2017-04-27T01:17:21.935Z,1013.2
2017-04-27T01:18:02.415Z,1013.15
2017-04-27T01:18:42.894Z,1013.2
2017-04-27T01:19:23.380Z,1013.16
2017-04-27T01:20:03.902Z,1013.2
2017-04-27T01:20:44.401Z,1013.17
2017-04-27T01:21:24.895Z,1013.17
2017-04-27T01:22:05.389Z,1013.19
2017-04-27T01:22:45.886Z,1013.18
2017-04-27T01:23:26.394Z,1013.16
2017-04-27T01:24:06.868Z,1013.21
2017-04-27T01:24:47.356Z,1013.19
2017-04-27T01:25:27.871Z,1013.16
2017-04-27T01:26:08.331Z,1013.21
2017-04-27T01:26:48.834Z,1013.15
2017-04-27T01:27:29.326Z,1013.15
2017-04-27T01:28:09.836Z,1013.17
2017-04-27T01:28:50.303Z,1013.17
2017-04-27T01:29:30.837Z,1013.13
2017-04-27T01:30:11.320Z,1013.14
2017-04-27T01:30:51.775Z,1013.14
2017-04-27T01:31:32.294Z,1013.17
2017-04-27T01:32:12.763Z,1013.12
2017-04-27T01:32:53.228Z,1013.15
2017-04-27T01:33:33.711Z,1013.17
2017-04-27T01:34:14.203Z,1013.19
2017-04-27T01:34:54.678Z,1013.19
2017-04-27T01:35:35.185Z,1013.18
2017-04-27T01:36:15.680Z,1013.13
2017-04-27T01:36:56.153Z,1013.21
2017-04-27T01:37:36.646Z,1013.18
2017-04-27T01:38:17.098Z,1013.18
2017-04-27T01:38:57.589Z,1013.2
2017-04-27T01:39:38.109Z,1013.17
2017-04-27T01:40:18.606Z,1013.21
2017-04-27T01:40:59.079Z,1013.21
2017-04-27T01:41:39.565Z,1013.21
2017-04-27T01:42:20.040Z,1013.2
2017-04-27T01:43:00.539Z,1013.2
2017-04-27T01:43:41.039Z,1013.2
2017-04-27T01:44:21.505Z,1013.2
2017-04-27T01:45:01.972Z,1013.15
2017-04-27T01:45:42.444Z,1013.16
2017-04-27T01:46:22.935Z,1013.17
2017-04-27T01:47:03.429Z,1013.25
2017-04-27T01:47:43.929Z,1013.2
2017-04-27T01:48:24.415Z,1013.23
2017-04-27T01:49:04.913Z,1013.17
2017-04-27T01:49:45.402Z,1013.19
2017-04-27T01:50:25.865Z,1013.17
2017-04-27T01:51:06.353Z,1013.2
2017-04-27T01:51:46.876Z,1013.21
2017-04-27T01:52:27.373Z,1013.23
2017-04-27T01:53:07.859Z,1013.21
2017-04-27T01:53:48.320Z,1013.18
2017-04-27T01:54:28.765Z,1013.17
2017-04-27T01:55:09.284Z,1013.19
2017-04-27T01:55:49.760Z,1013.21
2017-04-27T01:56:30.238Z,1013.22
2017-04-27T01:57:10.716Z,1013.2
2017-04-27T01:57:51.212Z,1013.24
2017-04-27T01:58:31.706Z,1013.22
2017-04-27T01:59:12.178Z,1013.19
2017-04-27T01:59:52.695Z,1013.17
2017-04-27T02:00:33.188Z,1013.22
2017-04-27T02:02:26.194Z,1013.19
2017-04-27T02:03:06.663Z,1013.19
2017-04-27T02:03:47.133Z,1013.21
2017-04-27T02:04:27.603Z,1013.21
2017-04-27T02:05:08.112Z,1013.22
2017-04-27T02:05:48.555Z,1013.17
2017-04-27T02:06:29.038Z,1013.19
2017-04-27T02:07:09.527Z,1013.21
2017-04-27T02:07:50.010Z,1013.17
2017-04-27T02:08:30.493Z,1013.21
2017-04-27T02:09:10.975Z,1013.17
2017-04-27T02:09:51.449Z,1013.15
2017-04-27T02:10:31.956Z,1013.15
2017-04-27T02:11:12.436Z,1013.14
2017-04-27T02:11:52.902Z,1013.15
2017-04-27T02:12:33.412Z,1013.16
2017-04-27T02:13:13.889Z,1013.16
2017-04-27T02:13:54.368Z,1013.15
2017-04-27T02:14:34.875Z,1013.12
2017-04-27T02:15:15.369Z,1013.14
2017-04-27T02:15:55.861Z,1013.17
2017-04-27T02:16:36.345Z,1013.14
2017-04-27T02:17:16.822Z,1013.17
2017-04-27T02:17:57.336Z,1013.2
2017-04-27T02:18:37.806Z,1013.13
2017-04-27T02:19:18.277Z,1013.12
2017-04-27T02:19:58.783Z,1013.14
2017-04-27T02:20:39.259Z,1013.14
2017-04-27T02:21:19.767Z,1013.17
2017-04-27T02:22:00.262Z,1013.13
2017-04-27T02:22:40.708Z,1013.14
2017-04-27T02:23:21.188Z,1013.13
2017-04-27T02:24:01.664Z,1013.1
2017-04-27T02:24:42.123Z,1013.07
2017-04-27T02:25:22.629Z,1013.08
2017-04-27T02:26:03.127Z,1013.05
2017-04-27T02:26:43.634Z,1013.08
2017-04-27T02:27:24.135Z,1013.09
2017-04-27T02:28:04.580Z,1013.07
2017-04-27T02:28:45.109Z,1013.07
2017-04-27T02:29:25.581Z,1013.06
2017-04-27T02:30:06.069Z,1013.06
2017-04-27T02:30:46.550Z,1013.05
2017-04-27T02:31:27.039Z,1013.09
2017-04-27T02:32:07.493Z,1013.06
2017-04-27T02:32:47.948Z,1013.08
2017-04-27T02:33:28.434Z,1013.02
2017-04-27T02:34:08.927Z,1013.03
2017-04-27T02:34:49.410Z,1013.05
2017-04-27T02:35:29.885Z,1013.08
2017-04-27T02:36:10.369Z,1013.08
2017-04-27T02:38:29.489Z,1013.05
2017-04-27T02:39:09.950Z,1013.03
2017-04-27T02:39:50.445Z,1013.04
2017-04-27T02:40:30.924Z,1013.01
2017-04-27T02:41:11.423Z,1012.98
2017-04-27T02:41:51.877Z,1012.98
2017-04-27T02:42:32.378Z,1013
2017-04-27T02:43:12.896Z,1012.97
2017-04-27T02:43:53.403Z,1012.93
2017-04-27T02:44:33.875Z,1012.93
2017-04-27T02:45:14.366Z,1012.94
2017-04-27T02:45:54.851Z,1012.9
2017-04-27T02:46:35.367Z,1012.94
2017-04-27T02:47:15.870Z,1012.9
2017-04-27T02:47:56.423Z,1012.93
2017-04-27T02:48:36.878Z,1012.91
2017-04-27T02:49:17.381Z,1012.91
2017-04-27T02:49:57.879Z,1012.92
2017-04-27T02:50:38.355Z,1012.89
2017-04-27T02:51:18.876Z,1012.92
2017-04-27T02:51:59.326Z,1012.91
2017-04-27T02:52:39.831Z,1012.88
2017-04-27T02:53:20.326Z,1012.89
2017-04-27T02:54:00.798Z,1012.85
2017-04-27T02:54:41.335Z,1012.86
2017-04-27T02:55:21.804Z,1012.87
2017-04-27T02:56:02.279Z,1012.83
2017-04-27T02:56:42.768Z,1012.84
2017-04-27T02:57:23.275Z,1012.8
2017-04-27T02:58:03.765Z,1012.8
2017-04-27T02:58:44.259Z,1012.83
2017-04-27T02:59:24.760Z,1012.82
2017-04-27T03:00:05.228Z,1012.87
2017-04-27T03:00:45.720Z,1012.84
2017-04-27T03:01:26.171Z,1012.85
2017-04-27T03:02:06.660Z,1012.81
2017-04-27T03:02:47.183Z,1012.81
2017-04-27T03:03:27.703Z,1012.83
2017-04-27T03:04:08.208Z,1012.83
2017-04-27T03:04:48.697Z,1012.83
2017-04-27T03:05:29.201Z,1012.82
2017-04-27T03:06:09.673Z,1012.86
2017-04-27T03:06:50.191Z,1012.82
2017-04-27T03:07:30.665Z,1012.82
2017-04-27T03:08:11.156Z,1012.84
2017-04-27T03:08:51.614Z,1012.8
2017-04-27T03:09:32.107Z,1012.81
2017-04-27T03:10:12.602Z,1012.85
2017-04-27T03:10:53.087Z,1012.79
2017-04-27T03:11:33.562Z,1012.76
2017-04-27T03:12:14.054Z,1012.76
2017-04-27T03:12:54.530Z,1012.78
2017-04-27T03:13:35.027Z,1012.77
2017-04-27T03:14:15.521Z,1012.75
2017-04-27T03:14:56.012Z,1012.73
2017-04-27T03:15:36.484Z,1012.75
2017-04-27T03:16:17.001Z,1012.77
2017-04-27T03:16:57.474Z,1012.75
2017-04-27T03:17:37.950Z,1012.72
2017-04-27T03:18:18.434Z,1012.7
2017-04-27T03:18:58.899Z,1012.73
2017-04-27T03:19:39.385Z,1012.74
2017-04-27T03:20:19.856Z,1012.73
2017-04-27T03:21:00.361Z,1012.72
2017-04-27T03:21:40.801Z,1012.74
2017-04-27T03:22:21.296Z,1012.76
2017-04-27T03:23:01.773Z,1012.75
2017-04-27T03:23:42.255Z,1012.73
2017-04-27T03:24:22.762Z,1012.76
2017-04-27T03:25:03.233Z,1012.74
2017-04-27T03:25:43.759Z,1012.76
2017-04-27T03:26:24.229Z,1012.76
2017-04-27T03:27:04.753Z,1012.78
2017-04-27T03:27:45.229Z,1012.78
2017-04-27T03:28:25.743Z,1012.79
2017-04-27T03:29:06.217Z,1012.82
2017-04-27T03:29:46.690Z,1012.82
2017-04-27T03:30:27.202Z,1012.81
2017-04-27T03:31:07.711Z,1012.77
2017-04-27T03:31:48.251Z,1012.81
2017-04-27T03:32:28.732Z,1012.9
2017-04-27T03:33:09.192Z,1012.85
2017-04-27T03:33:49.687Z,1012.82
2017-04-27T03:34:30.200Z,1012.84
2017-04-27T03:35:10.689Z,1012.87
2017-04-27T03:35:51.206Z,1012.87
2017-04-27T03:36:31.687Z,1012.83
2017-04-27T03:37:12.177Z,1012.83
2017-04-27T03:37:52.638Z,1012.83
2017-04-27T03:38:33.135Z,1012.82
2017-04-27T03:39:13.645Z,1012.85
2017-04-27T03:39:54.193Z,1012.88
2017-04-27T03:40:34.701Z,1012.87
2017-04-27T03:41:15.175Z,1012.8
2017-04-27T03:41:55.654Z,1012.82
2017-04-27T03:42:36.175Z,1012.86
2017-04-27T03:43:16.674Z,1012.84
2017-04-27T03:43:57.175Z,1012.87
2017-04-27T03:44:37.659Z,1012.85
2017-04-27T03:45:18.173Z,1012.85
2017-04-27T03:45:58.682Z,1012.8
2017-04-27T03:46:39.219Z,1012.85
2017-04-27T03:47:19.730Z,1012.84
2017-04-27T03:48:00.213Z,1012.85
2017-04-27T03:48:40.737Z,1012.85
2017-04-27T03:49:21.221Z,1012.83
2017-04-27T03:50:01.736Z,1012.81
2017-04-27T03:50:42.197Z,1012.81
2017-04-27T03:51:22.655Z,1012.81
2017-04-27T03:52:03.178Z,1012.87
2017-04-27T03:52:43.679Z,1012.86
2017-04-27T03:53:24.134Z,1012.83
2017-04-27T03:54:04.623Z,1012.83
2017-04-27T03:54:45.110Z,1012.88
2017-04-27T03:55:25.589Z,1012.89
2017-04-27T03:56:06.090Z,1012.93
2017-04-27T03:56:46.611Z,1012.95
2017-04-27T03:57:27.072Z,1012.99
2017-04-27T03:58:08.546Z,1012.96
2017-04-27T03:58:49.019Z,1013
2017-04-27T03:59:29.511Z,1013
2017-04-27T04:00:09.972Z,1013.01
2017-04-27T04:00:50.468Z,1013.06
2017-04-27T04:01:30.983Z,1013
2017-04-27T04:02:11.479Z,1013.01
2017-04-27T04:02:52.017Z,1012.97
2017-04-27T04:03:32.477Z,1012.95
2017-04-27T04:04:12.950Z,1013
2017-04-27T04:04:53.449Z,1012.92
2017-04-27T04:05:33.922Z,1012.92
2017-04-27T04:06:14.425Z,1012.94
2017-04-27T04:06:54.912Z,1012.93
2017-04-27T04:07:35.432Z,1012.91
2017-04-27T04:08:15.933Z,1012.97
2017-04-27T04:08:56.440Z,1012.93
2017-04-27T04:09:36.934Z,1012.95
2017-04-27T04:10:17.415Z,1012.95
2017-04-27T04:10:57.894Z,1012.98
2017-04-27T04:11:38.416Z,1012.96
2017-04-27T04:12:18.880Z,1012.96
2017-04-27T04:12:59.486Z,1012.96
2017-04-27T04:13:39.979Z,1012.98
2017-04-27T04:14:20.456Z,1012.95
2017-04-27T04:15:00.942Z,1012.98
2017-04-27T04:15:41.436Z,1012.95
2017-04-27T04:16:21.920Z,1013.01
2017-04-27T04:17:02.414Z,1013.03
2017-04-27T04:17:42.888Z,1012.94
2017-04-27T04:18:23.397Z,1012.93
2017-04-27T04:19:03.858Z,1012.99
2017-04-27T04:19:44.354Z,1012.98
2017-04-27T04:21:42.434Z,1012.98
2017-04-27T04:22:22.915Z,1012.98
2017-04-27T04:23:03.387Z,1012.97
2017-04-27T04:23:43.871Z,1012.99
2017-04-27T04:24:24.356Z,1012.97
2017-04-27T04:25:04.851Z,1012.98
2017-04-27T04:25:45.415Z,1012.96
2017-04-27T04:26:25.871Z,1012.99
2017-04-27T04:27:06.382Z,1013.01
2017-04-27T04:27:46.885Z,1012.98
2017-04-27T04:28:27.341Z,1012.99
2017-04-27T04:29:07.855Z,1012.95
2017-04-27T04:29:48.344Z,1012.98
2017-04-27T04:30:28.856Z,1013.03
2017-04-27T04:31:09.326Z,1013.04
2017-04-27T04:31:49.769Z,1013.02
2017-04-27T04:32:30.255Z,1013
2017-04-27T04:33:10.735Z,1013.08
2017-04-27T04:33:51.232Z,1013.08
2017-04-27T04:34:31.713Z,1013.08
2017-04-27T04:35:12.183Z,1013.1
2017-04-27T04:35:52.654Z,1013.05
2017-04-27T04:36:33.227Z,1013.1
2017-04-27T04:37:13.705Z,1013.05
2017-04-27T04:37:54.186Z,1013.07
2017-04-27T04:38:34.688Z,1013.05
2017-04-27T04:39:15.183Z,1013.09
2017-04-27T04:39:55.621Z,1013.1
2017-04-27T04:40:36.131Z,1013.06
2017-04-27T04:41:16.616Z,1013.08
2017-04-27T04:41:57.087Z,1013.05
2017-04-27T04:42:37.561Z,1013.05
2017-04-27T04:43:18.066Z,1013.06
2017-04-27T04:43:58.540Z,1013.01
2017-04-27T04:44:39.066Z,1013.03
2017-04-27T04:45:19.550Z,1013.01
2017-04-27T04:45:59.990Z,1013.03
2017-04-27T04:46:40.464Z,1013.04
2017-04-27T04:47:20.963Z,1013.01
2017-04-27T04:48:01.415Z,1013.04
2017-04-27T04:48:41.874Z,1013.02
2017-04-27T04:49:22.392Z,1013.04
2017-04-27T04:50:02.854Z,1013.06
2017-04-27T04:50:43.370Z,1013.04
2017-04-27T04:51:23.825Z,1013
2017-04-27T04:52:04.316Z,1013.02
2017-04-27T04:52:44.827Z,1013
2017-04-27T04:53:25.295Z,1012.98
2017-04-27T04:54:05.786Z,1012.98
2017-04-27T04:54:46.273Z,1013
2017-04-27T04:55:26.779Z,1012.97
2017-04-27T04:56:07.254Z,1012.99
2017-04-27T04:56:47.752Z,1013.02
2017-04-27T04:57:28.277Z,1012.98
2017-04-27T04:58:08.764Z,1012.99
2017-04-27T04:58:49.246Z,1013.01
2017-04-27T04:59:29.737Z,1012.99
2017-04-27T05:00:10.190Z,1013
2017-04-27T05:00:50.671Z,1013.03
2017-04-27T05:01:31.152Z,1012.98
2017-04-27T05:02:11.642Z,1013.05
2017-04-27T05:02:52.200Z,1013.01
2017-04-27T05:03:32.660Z,1013.02
2017-04-27T05:04:13.187Z,1013
2017-04-27T05:04:53.642Z,1013.03
2017-04-27T05:05:34.093Z,1013.05
2017-04-27T05:07:47.308Z,1013.02
2017-04-27T05:08:27.750Z,1012.98
2017-04-27T05:09:08.259Z,1013.03
2017-04-27T05:09:48.754Z,1013.03
2017-04-27T05:10:29.244Z,1013.04
2017-04-27T05:11:09.728Z,1013.03
2017-04-27T05:11:50.218Z,1013.02
2017-04-27T05:12:30.726Z,1013.05
2017-04-27T05:13:11.212Z,1013.05
2017-04-27T05:13:51.689Z,1012.99
2017-04-27T05:14:32.181Z,1013.06
2017-04-27T05:15:12.658Z,1013.06
2017-04-27T05:15:53.146Z,1013.02
2017-04-27T05:16:33.620Z,1013.04
2017-04-27T05:17:14.115Z,1013.06
2017-04-27T05:17:54.600Z,1013.07
2017-04-27T05:18:35.082Z,1013.06
2017-04-27T05:19:15.580Z,1013.02
2017-04-27T05:19:56.074Z,1013.02
2017-04-27T05:20:36.567Z,1013.05
2017-04-27T05:21:17.062Z,1013
2017-04-27T05:21:57.578Z,1013.06
2017-04-27T05:22:38.075Z,1013.03
2017-04-27T05:23:18.612Z,1013.04
2017-04-27T05:23:59.110Z,1013.04
2017-04-27T05:24:39.575Z,1013.05
2017-04-27T05:25:20.106Z,1013.09
2017-04-27T05:26:00.577Z,1013.1
2017-04-27T05:26:41.050Z,1013.08
2017-04-27T05:27:21.534Z,1013.08
2017-04-27T05:28:02.030Z,1013.07
2017-04-27T05:28:42.544Z,1013.1
2017-04-27T05:29:23.022Z,1013.07
2017-04-27T05:30:03.507Z,1013.05
2017-04-27T05:30:43.994Z,1013.02
2017-04-27T05:31:24.472Z,1013.09
2017-04-27T05:32:04.968Z,1013.09
2017-04-27T05:32:45.444Z,1013.06
2017-04-27T05:33:25.991Z,1013.08
2017-04-27T05:34:06.485Z,1013.05
2017-04-27T05:34:46.950Z,1013.07
2017-04-27T05:35:27.435Z,1013.07
2017-04-27T05:36:07.955Z,1013.06
2017-04-27T05:36:48.489Z,1013.02
2017-04-27T05:37:28.961Z,1013.07
2017-04-27T05:38:09.479Z,1013.05
2017-04-27T05:38:49.953Z,1013.04
2017-04-27T05:39:30.478Z,1013.06
2017-04-27T05:40:10.942Z,1013.03
2017-04-27T05:40:51.414Z,1013.05
2017-04-27T05:41:31.900Z,1013.03
2017-04-27T05:42:12.417Z,1013.05
2017-04-27T05:42:52.908Z,1013.09
2017-04-27T05:43:33.423Z,1013.06
2017-04-27T05:44:13.909Z,1013.03
2017-04-27T05:44:54.528Z,1013.06
2017-04-27T05:45:35.000Z,1013.06
2017-04-27T05:46:15.487Z,1013.05
2017-04-27T05:46:55.966Z,1013.05
2017-04-27T05:47:36.434Z,1013.07
2017-04-27T05:48:16.891Z,1013.1
2017-04-27T05:48:57.383Z,1013.09
2017-04-27T05:49:37.839Z,1013.05
2017-04-27T05:50:18.360Z,1013.1
2017-04-27T05:50:58.836Z,1013.11
2017-04-27T05:51:39.328Z,1013.08
2017-04-27T05:52:19.836Z,1013.08
2017-04-27T05:53:00.323Z,1013.09
2017-04-27T05:53:40.810Z,1013.07
2017-04-27T05:54:21.297Z,1013.12
2017-04-27T05:55:01.801Z,1013.09
2017-04-27T05:55:42.300Z,1013.11
2017-04-27T05:56:22.776Z,1013.11
2017-04-27T05:57:03.342Z,1013.07
2017-04-27T05:57:43.815Z,1013.1
2017-04-27T05:58:24.303Z,1013.11
2017-04-27T05:59:04.838Z,1013.1
2017-04-27T05:59:45.335Z,1013.09
2017-04-27T06:00:25.857Z,1013.13
2017-04-27T06:01:06.351Z,1013.08
2017-04-27T06:01:46.843Z,1013.09
2017-04-27T06:02:27.322Z,1013.1
2017-04-27T06:03:07.794Z,1013.12
2017-04-27T06:03:48.469Z,1013.1
2017-04-27T06:04:28.971Z,1013.09
2017-04-27T06:05:09.512Z,1013.09
2017-04-27T06:05:50.011Z,1013.07
2017-04-27T06:06:30.499Z,1013.08
2017-04-27T06:07:11.606Z,1013.05
2017-04-27T06:07:53.411Z,1013.06
2017-04-27T06:08:35.722Z,1013.06
2017-04-27T06:09:17.075Z,1013.05
2017-04-27T06:09:58.287Z,1013.08
2017-04-27T06:10:38.803Z,1013.07
2017-04-27T06:11:20.038Z,1013.06
2017-04-27T06:12:00.553Z,1013.03
2017-04-27T06:12:44.383Z,1013.09
2017-04-27T06:13:25.386Z,1013.09
2017-04-27T06:14:07.714Z,1013.07
2017-04-27T06:14:48.724Z,1013.13
2017-04-27T06:15:31.393Z,1013.14
2017-04-27T06:16:12.679Z,1013.15
2017-04-27T06:16:53.233Z,1013.14
2017-04-27T06:17:33.743Z,1013.12
2017-04-27T06:18:14.872Z,1013.13
2017-04-27T06:18:56.230Z,1013.18
2017-04-27T06:19:36.706Z,1013.18
2017-04-27T06:20:18.656Z,1013.15
2017-04-27T06:20:59.950Z,1013.18
2017-04-27T06:21:45.112Z,1013.17
2017-04-27T06:22:25.705Z,1013.19
2017-04-27T06:23:08.454Z,1013.18
2017-04-27T06:23:49.762Z,1013.19
2017-04-27T06:24:30.309Z,1013.24
2017-04-27T06:25:10.764Z,1013.21
2017-04-27T06:25:51.277Z,1013.24
2017-04-27T06:26:31.729Z,1013.21
2017-04-27T06:27:12.299Z,1013.23
2017-04-27T06:27:54.274Z,1013.29
2017-04-27T06:28:34.773Z,1013.3
2017-04-27T06:29:15.256Z,1013.19
2017-04-27T06:29:55.767Z,1013.2
2017-04-27T06:30:36.193Z,1013.2
2017-04-27T06:31:16.807Z,1013.21
2017-04-27T06:31:57.496Z,1013.23
2017-04-27T06:32:38.031Z,1013.21
2017-04-27T06:33:18.493Z,1013.23
2017-04-27T06:33:59.025Z,1013.21
2017-04-27T06:34:39.522Z,1013.21
2017-04-27T06:35:20.036Z,1013.21
2017-04-27T06:36:00.525Z,1013.23
2017-04-27T06:36:40.993Z,1013.24
2017-04-27T06:37:21.470Z,1013.2
2017-04-27T06:38:01.947Z,1013.21
2017-04-27T06:38:42.578Z,1013.21
2017-04-27T06:39:23.219Z,1013.21
2017-04-27T06:40:03.698Z,1013.18
2017-04-27T06:40:44.139Z,1013.25
2017-04-27T06:41:24.643Z,1013.28
2017-04-27T06:42:05.146Z,1013.26
2017-04-27T06:42:45.623Z,1013.34
2017-04-27T06:43:26.136Z,1013.36
2017-04-27T06:44:06.609Z,1013.35
2017-04-27T06:44:47.112Z,1013.33
2017-04-27T06:45:27.576Z,1013.34
2017-04-27T06:46:08.104Z,1013.33
2017-04-27T06:46:48.601Z,1013.35
2017-04-27T06:47:29.125Z,1013.35
2017-04-27T06:48:09.626Z,1013.34
2017-04-27T06:48:50.154Z,1013.36
2017-04-27T06:49:30.694Z,1013.37
2017-04-27T06:50:11.207Z,1013.41
2017-04-27T06:50:51.740Z,1013.38
2017-04-27T06:51:32.205Z,1013.33
2017-04-27T06:52:12.677Z,1013.36
2017-04-27T06:52:53.233Z,1013.43
2017-04-27T06:53:33.707Z,1013.32
2017-04-27T06:54:14.221Z,1013.35
2017-04-27T06:54:54.721Z,1013.36
2017-04-27T06:55:35.332Z,1013.34
2017-04-27T06:56:15.789Z,1013.41
2017-04-27T06:56:56.310Z,1013.38
2017-04-27T06:59:14.631Z,1013.4
2017-04-27T06:59:55.068Z,1013.42
2017-04-27T07:00:35.541Z,1013.31
2017-04-27T07:01:16.004Z,1013.32
2017-04-27T07:01:56.519Z,1013.3
2017-04-27T07:02:37.011Z,1013.34
2017-04-27T07:03:17.542Z,1013.33
2017-04-27T07:03:58.019Z,1013.35
2017-04-27T07:04:38.493Z,1013.35
2017-04-27T07:05:19.007Z,1013.43
2017-04-27T07:05:59.475Z,1013.37
2017-04-27T07:06:39.971Z,1013.29
2017-04-27T07:07:20.519Z,1013.28
2017-04-27T07:08:01.067Z,1013.33
2017-04-27T07:08:41.590Z,1013.35
2017-04-27T07:09:22.344Z,1013.36
2017-04-27T07:10:03.014Z,1013.32
2017-04-27T07:10:43.478Z,1013.35
2017-04-27T07:11:24.009Z,1013.32
2017-04-27T07:12:04.562Z,1013.34
2017-04-27T07:12:45.242Z,1013.31
2017-04-27T07:13:27.917Z,1013.35
2017-04-27T07:14:08.667Z,1013.32
2017-04-27T07:14:49.240Z,1013.32
2017-04-27T07:15:29.772Z,1013.33
2017-04-27T07:16:10.327Z,1013.43
2017-04-27T07:16:50.913Z,1013.31
2017-04-27T07:17:31.352Z,1013.35
2017-04-27T07:18:11.873Z,1013.41
2017-04-27T07:18:52.496Z,1013.44
2017-04-27T07:19:32.993Z,1013.42
2017-04-27T07:20:13.510Z,1013.44
2017-04-27T07:20:54.015Z,1013.43
2017-04-27T07:22:47.139Z,1013.46
2017-04-27T07:23:28.437Z,1013.41
2017-04-27T07:24:08.960Z,1013.42
2017-04-27T07:24:49.459Z,1013.44
2017-04-27T07:25:29.925Z,1013.44
2017-04-27T07:26:10.484Z,1013.43
2017-04-27T07:26:51.026Z,1013.42
2017-04-27T07:27:38.123Z,1013.44
2017-04-27T07:28:19.706Z,1013.43
2017-04-27T07:29:00.185Z,1013.4
2017-04-27T07:29:40.668Z,1013.42
2017-04-27T07:30:21.296Z,1013.4
2017-04-27T07:31:01.796Z,1013.39
2017-04-27T07:31:42.306Z,1013.4
2017-04-27T07:32:22.923Z,1013.41
2017-04-27T07:33:03.455Z,1013.43
2017-04-27T07:33:44.004Z,1013.39
2017-04-27T07:34:24.642Z,1013.41
2017-04-27T07:35:05.097Z,1013.43
2017-04-27T07:35:45.608Z,1013.36
2017-04-27T07:36:26.141Z,1013.39
2017-04-27T07:37:06.604Z,1013.41
2017-04-27T07:37:47.101Z,1013.42
2017-04-27T07:38:27.684Z,1013.41
2017-04-27T07:39:08.438Z,1013.46
2017-04-27T07:39:49.073Z,1013.36
2017-04-27T07:40:29.527Z,1013.45
2017-04-27T07:41:10.309Z,1013.45
2017-04-27T07:41:50.864Z,1013.45
2017-04-27T07:42:31.507Z,1013.37
2017-04-27T07:43:11.987Z,1013.41
2017-04-27T07:43:52.432Z,1013.42
2017-04-27T07:44:32.927Z,1013.45
2017-04-27T07:45:13.513Z,1013.4
2017-04-27T07:45:53.985Z,1013.42
2017-04-27T07:46:34.584Z,1013.42
2017-04-27T07:47:15.206Z,1013.38
2017-04-27T07:47:55.714Z,1013.45
2017-04-27T07:48:36.173Z,1013.46
2017-04-27T07:49:16.755Z,1013.51
2017-04-27T07:49:57.235Z,1013.45
2017-04-27T07:50:37.715Z,1013.47
2017-04-27T07:51:18.634Z,1013.39
2017-04-27T07:51:59.162Z,1013.42
2017-04-27T07:52:39.694Z,1013.52
2017-04-27T07:53:20.153Z,1013.43
2017-04-27T07:54:00.650Z,1013.48
2017-04-27T07:54:41.175Z,1013.53
2017-04-27T07:55:21.707Z,1013.45
2017-04-27T07:56:02.377Z,1013.42
2017-04-27T07:56:43.045Z,1013.48
2017-04-27T07:57:23.618Z,1013.48
2017-04-27T07:58:04.134Z,1013.44
2017-04-27T07:58:44.593Z,1013.47
2017-04-27T07:59:25.092Z,1013.57
2017-04-27T08:00:05.584Z,1013.54
2017-04-27T08:00:46.160Z,1013.54
2017-04-27T08:01:26.695Z,1013.55
2017-04-27T08:02:07.217Z,1013.46
2017-04-27T08:02:47.718Z,1013.54
2017-04-27T08:03:28.240Z,1013.57
2017-04-27T08:04:08.690Z,1013.52
2017-04-27T08:04:49.167Z,1013.49
2017-04-27T08:05:29.725Z,1013.64
2017-04-27T08:06:10.206Z,1013.52
2017-04-27T08:06:50.710Z,1013.5
2017-04-27T08:07:31.170Z,1013.65
2017-04-27T08:08:11.707Z,1013.51
2017-04-27T08:08:52.175Z,1013.51
2017-04-27T08:09:32.689Z,1013.52
2017-04-27T08:10:13.257Z,1013.62
2017-04-27T08:10:53.757Z,1013.65
2017-04-27T08:11:34.240Z,1013.65
2017-04-27T08:12:14.779Z,1013.57
2017-04-27T08:12:55.277Z,1013.66
2017-04-27T08:13:35.776Z,1013.64
2017-04-27T08:14:16.275Z,1013.61
2017-04-27T08:14:56.776Z,1013.56
2017-04-27T08:15:37.247Z,1013.6
2017-04-27T08:16:17.708Z,1013.9
2017-04-27T08:16:58.196Z,1013.62
2017-04-27T08:17:38.848Z,1013.64
2017-04-27T08:18:19.441Z,1013.62
2017-04-27T08:18:59.946Z,1013.61
2017-04-27T08:19:40.433Z,1013.64
2017-04-27T08:20:20.924Z,1013.71
2017-04-27T08:21:01.791Z,1013.83
2017-04-27T08:21:42.412Z,1013.83
2017-04-27T08:22:22.887Z,1013.78
2017-04-27T08:23:05.652Z,1013.73
2017-04-27T08:23:46.901Z,1013.76
2017-04-27T08:24:27.976Z,1013.88
2017-04-27T08:25:08.462Z,1013.75